Time;durP1;ratioP1;P1;durP2;ratioP2;P2;SDS_P1;SDS_P2;PMS_P1;PMS_P2;Temp;Humidity;BMP_temperature;BMP_pressure;BME280_temperature;BME280_humidity;BME280_pressure;Samples;Min_cycle;Max_cycle;Signal;HPM_P1;HPM_P2
2022/10/16 00:01:25;;;;;;;548.44;182.60;;;;;;;13.88;69.60;100283.88;2499742;27;20478;-76
2022/10/16 00:01:36;;;;;;;562.30;190.48;;;;;;;13.89;69.35;100288.22;353341;28;1417;-77
2022/10/16 00:01:46;;;;;;;563.05;189.95;;;;;;;13.88;69.56;100286.53;347869;28;1316;-77
2022/10/16 00:01:57;;;;;;;563.53;193.07;;;;;;;13.87;69.35;100285.66;347669;28;1211;-77
2022/10/16 00:02:07;;;;;;;564.10;196.73;;;;;;;13.89;69.39;100293.50;349199;28;1129;-77
2022/10/16 00:02:17;;;;;;;564.92;198.18;;;;;;;13.89;69.38;100288.22;349218;28;929;-77
2022/10/16 00:02:28;;;;;;;564.00;197.67;;;;;;;13.89;69.31;100283.81;349271;28;1370;-77
2022/10/16 00:02:38;;;;;;;562.03;194.65;;;;;;;13.90;69.33;100282.03;351029;28;872;-77
2022/10/16 00:02:49;;;;;;;562.23;194.17;;;;;;;13.90;69.28;100284.69;348232;28;1280;-76
2022/10/16 00:02:59;;;;;;;562.47;195.05;;;;;;;13.89;69.25;100282.97;348724;28;1296;-76
2022/10/16 00:03:10;;;;;;;564.08;198.32;;;;;;;13.90;69.55;100287.31;350223;28;992;-76
2022/10/16 00:03:21;;;;;;;563.60;200.27;;;;;;;13.88;69.59;100279.47;350044;28;1098;-76
2022/10/16 00:03:31;;;;;;;562.53;199.65;;;;;;;13.87;69.78;100287.44;348608;28;1165;-76
2022/10/16 00:03:42;;;;;;;561.83;198.80;;;;;;;13.88;69.37;100290.00;348173;28;1278;-76
2022/10/16 00:03:52;;;;;;;562.72;200.90;;;;;;;13.88;69.88;100291.78;345834;28;968;-76
2022/10/16 00:04:03;;;;;;;562.55;201.75;;;;;;;13.88;69.76;100286.53;346566;28;923;-76
2022/10/16 00:04:13;;;;;;;563.53;201.53;;;;;;;13.88;69.77;100286.53;348361;28;1106;-76
2022/10/16 00:04:24;;;;;;;563.70;200.50;;;;;;;13.88;69.85;100287.38;349026;28;891;-76
2022/10/16 00:04:34;;;;;;;563.40;197.93;;;;;;;13.88;69.67;100286.53;346584;28;988;-76
2022/10/16 00:04:44;;;;;;;562.13;196.43;;;;;;;13.86;70.51;100286.59;345423;28;967;-76
2022/10/16 00:04:55;;;;;;;562.77;195.83;;;;;;;13.86;70.18;100291.03;345240;28;1000;-76
2022/10/16 00:05:05;;;;;;;563.80;198.48;;;;;;;13.82;70.64;100292.09;348513;28;1220;-76
2022/10/16 00:05:16;;;;;;;566.37;201.20;;;;;;;13.76;70.89;100292.34;347736;28;1405;-76
2022/10/16 00:05:26;;;;;;;566.33;200.77;;;;;;;13.72;71.55;100290.75;349110;28;1737;-76
2022/10/16 00:05:43;;;;;;;566.43;198.43;;;;;;;13.71;71.17;100292.53;347786;28;1305;-76
2022/10/16 00:05:53;;;;;;;567.17;198.13;;;;;;;13.72;71.43;100285.50;345116;28;1059;-76
2022/10/16 00:06:04;;;;;;;567.30;199.90;;;;;;;13.71;71.16;100284.66;346095;28;1075;-76
2022/10/16 00:06:15;;;;;;;566.53;201.10;;;;;;;13.71;71.26;100284.66;343820;28;924;-78
2022/10/16 00:06:27;;;;;;;564.97;203.95;;;;;;;13.71;71.45;100291.69;342972;28;1146;-78
2022/10/16 00:06:37;;;;;;;564.45;205.10;;;;;;;13.71;71.45;100294.31;346424;28;1443;-76
2022/10/16 00:06:47;;;;;;;564.63;205.15;;;;;;;13.69;71.47;100290.88;346063;28;1261;-76
2022/10/16 00:06:58;;;;;;;565.67;202.37;;;;;;;13.70;71.54;100288.19;344469;28;1135;-77
2022/10/16 00:07:08;;;;;;;566.97;203.30;;;;;;;13.69;71.68;100285.63;343836;28;1206;-77
2022/10/16 00:07:19;;;;;;;568.67;202.27;;;;;;;13.69;71.60;100290.88;345907;28;1227;-76
2022/10/16 00:07:29;;;;;;;567.60;205.52;;;;;;;13.68;71.57;100289.19;349360;28;1211;-76
2022/10/16 00:07:39;;;;;;;567.30;208.33;;;;;;;13.68;71.61;100294.44;346580;28;1394;-77
2022/10/16 00:07:50;;;;;;;569.10;217.20;;;;;;;13.67;71.71;100290.09;345332;28;1430;-77
2022/10/16 00:08:02;;;;;;;572.47;222.05;;;;;;;13.67;71.73;100292.72;345061;28;1188;-77
2022/10/16 00:08:13;;;;;;;574.90;227.43;;;;;;;13.62;71.98;100285.88;343521;28;1423;-77
2022/10/16 00:08:23;;;;;;;575.63;230.93;;;;;;;13.60;72.09;100293.00;341664;29;1666;-77
2022/10/16 00:08:35;;;;;;;573.83;230.98;;;;;;;13.59;72.06;100299.16;342524;28;1281;-77
2022/10/16 00:08:46;;;;;;;573.58;230.98;;;;;;;13.58;72.18;100296.59;340043;29;1522;-77
2022/10/16 00:08:57;;;;;;;573.90;233.47;;;;;;;13.59;71.98;100295.69;340703;29;1183;-78
2022/10/16 00:09:08;;;;;;;574.63;234.77;;;;;;;13.60;72.01;100293.00;342138;28;1466;-77
2022/10/16 00:09:18;;;;;;;576.78;238.50;;;;;;;13.60;71.91;100292.13;343543;28;1186;-77
2022/10/16 00:09:28;;;;;;;579.30;239.35;;;;;;;13.58;72.05;100293.97;340858;28;1721;-77
2022/10/16 00:09:39;;;;;;;581.37;241.83;;;;;;;13.58;72.22;100292.19;338220;29;1666;-76
2022/10/16 00:09:49;;;;;;;580.03;238.25;;;;;;;13.57;72.07;100290.47;336034;29;1712;-77
2022/10/16 00:10:00;;;;;;;576.33;233.47;;;;;;;13.58;72.30;100299.22;336455;29;1630;-77
2022/10/16 00:10:10;;;;;;;574.33;227.50;;;;;;;13.58;72.17;100299.22;334444;29;1087;-77
2022/10/16 00:10:21;;;;;;;574.60;227.70;;;;;;;13.57;72.06;100293.13;335322;29;1914;-77
2022/10/16 00:10:31;;;;;;;575.72;228.57;;;;;;;13.57;72.05;100293.13;335313;29;1209;-78
2022/10/16 00:10:41;;;;;;;576.83;230.30;;;;;;;13.58;72.44;100299.22;337135;29;1287;-78
2022/10/16 00:10:52;;;;;;;577.95;233.52;;;;;;;13.58;72.28;100297.47;336872;29;1368;-78
2022/10/16 00:11:08;;;;;;;578.63;236.87;;;;;;;13.56;72.03;100290.56;335638;29;2131;-78
2022/10/16 00:11:25;;;;;;;575.20;240.18;;;;;;;13.58;72.10;100299.22;332800;29;1421;-78
2022/10/16 00:11:37;;;;;;;573.50;233.52;;;;;;;13.57;72.19;100300.16;333809;29;1729;-78
2022/10/16 00:11:47;;;;;;;574.88;232.23;;;;;;;13.55;72.04;100292.31;333906;29;1757;-78
2022/10/16 00:11:57;;;;;;;575.55;234.90;;;;;;;13.55;72.03;100294.94;333983;29;1313;-78
2022/10/16 00:12:08;;;;;;;575.30;232.17;;;;;;;13.54;72.06;100292.38;331368;29;1269;-78
2022/10/16 00:12:19;;;;;;;574.45;231.98;;;;;;;13.53;72.09;100296.78;330621;29;2254;-78
2022/10/16 00:12:29;;;;;;;575.37;231.90;;;;;;;13.54;72.34;100293.25;327227;30;1553;-78
2022/10/16 00:12:39;;;;;;;575.13;231.82;;;;;;;13.50;72.23;100291.66;325654;30;1248;-78
2022/10/16 00:12:50;;;;;;;574.67;230.63;;;;;;;13.51;72.25;100292.50;329366;30;813;-78
2022/10/16 00:13:00;;;;;;;573.67;229.55;;;;;;;13.50;72.22;100291.66;330546;29;1024;-78
2022/10/16 00:13:11;;;;;;;572.63;228.40;;;;;;;13.51;72.38;100297.78;329188;29;1783;-78
2022/10/16 00:13:21;;;;;;;572.78;225.80;;;;;;;13.51;72.47;100293.38;325649;30;1826;-78
2022/10/16 00:13:32;;;;;;;572.47;225.90;;;;;;;13.50;72.47;100294.28;322670;30;1999;-78
2022/10/16 00:13:43;;;;;;;573.05;230.68;;;;;;;13.51;72.80;100293.38;323390;30;1251;-78
2022/10/16 00:13:57;;;;;;;575.40;234.50;;;;;;;13.50;72.59;100302.19;322000;30;1012;-78
2022/10/16 00:14:13;;;;;;;575.40;228.15;;;;;;;13.51;72.47;100300.41;324840;30;971;-77
2022/10/16 00:14:23;;;;;;;578.17;227.05;;;;;;;13.50;72.46;100290.81;317580;31;1448;-77
2022/10/16 00:14:33;;;;;;;576.45;230.75;;;;;;;13.49;72.45;100294.34;312347;31;2743;-77
2022/10/16 00:14:44;;;;;;;578.57;230.67;;;;;;;13.50;72.76;100296.06;313502;30;1717;-77
2022/10/16 00:14:54;;;;;;;573.67;230.68;;;;;;;13.48;72.51;100298.75;318846;31;1323;-76
2022/10/16 00:15:05;;;;;;;575.23;231.10;;;;;;;13.48;72.60;100298.75;319929;30;1241;-77
2022/10/16 00:15:16;;;;;;;577.20;235.15;;;;;;;13.48;72.64;100298.75;319919;30;1757;-77
2022/10/16 00:15:26;;;;;;;579.33;236.20;;;;;;;13.48;72.60;100296.13;316379;31;1354;-77
2022/10/16 00:15:37;;;;;;;579.63;236.27;;;;;;;13.48;72.43;100295.28;315767;31;2429;-77
2022/10/16 00:15:47;;;;;;;577.35;233.93;;;;;;;13.48;72.22;100293.50;316145;31;3501;-77
2022/10/16 00:15:58;;;;;;;575.30;232.07;;;;;;;13.49;72.54;100294.34;315060;31;1587;-77
2022/10/16 00:16:09;;;;;;;573.65;231.15;;;;;;;13.49;72.31;100295.22;313159;31;924;-77
2022/10/16 00:16:19;;;;;;;572.90;232.02;;;;;;;13.49;72.29;100303.09;312699;31;3267;-77
2022/10/16 00:16:29;;;;;;;572.40;232.53;;;;;;;13.49;72.36;100305.72;308705;31;3488;-77
2022/10/16 00:16:40;;;;;;;575.00;231.23;;;;;;;13.48;72.26;100298.75;303344;32;1153;-77
2022/10/16 00:16:50;;;;;;;574.77;228.40;;;;;;;13.48;72.36;100293.50;312887;31;3278;-77
2022/10/16 00:17:01;;;;;;;576.83;226.83;;;;;;;13.49;72.35;100295.22;313553;31;2193;-78
2022/10/16 00:17:11;;;;;;;573.27;229.43;;;;;;;13.49;72.21;100300.47;311726;31;1426;-78
2022/10/16 00:17:21;;;;;;;575.97;231.02;;;;;;;13.48;72.45;100298.75;312425;31;2279;-78
2022/10/16 00:17:32;;;;;;;575.70;231.17;;;;;;;13.47;72.38;100299.66;310975;31;2689;-77
2022/10/16 00:17:42;;;;;;;576.47;229.32;;;;;;;13.47;72.39;100307.56;310823;31;891;-77
2022/10/16 00:17:53;;;;;;;575.40;228.60;;;;;;;13.45;72.38;100298.88;310823;31;3378;-77
2022/10/16 00:18:03;;;;;;;577.00;229.32;;;;;;;13.44;72.45;100297.16;306614;31;4769;-77
2022/10/16 00:18:14;;;;;;;577.08;233.27;;;;;;;13.45;72.39;100298.88;303303;31;4386;-77
2022/10/16 00:18:25;;;;;;;575.00;230.17;;;;;;;13.43;72.31;100294.63;307329;32;1936;-77
2022/10/16 00:18:36;;;;;;;572.63;228.10;;;;;;;13.42;72.20;100299.03;304563;31;4796;-78
2022/10/16 00:18:47;;;;;;;572.45;226.45;;;;;;;13.42;72.50;100299.03;304009;31;4472;-78
2022/10/16 00:18:58;;;;;;;575.30;228.20;;;;;;;13.41;72.26;100297.34;306434;32;932;-78
2022/10/16 00:19:09;;;;;;;574.53;226.60;;;;;;;13.40;72.52;100298.25;299306;33;850;-78
2022/10/16 00:19:19;;;;;;;575.63;222.02;;;;;;;13.37;72.47;100301.00;300723;32;3065;-76
2022/10/16 00:19:30;;;;;;;574.50;222.68;;;;;;;13.37;72.59;100301.00;299323;32;2804;-76
2022/10/16 00:19:40;;;;;;;575.80;225.47;;;;;;;13.38;72.64;100296.59;296139;33;1382;-76
2022/10/16 00:19:50;;;;;;;575.85;230.02;;;;;;;13.37;72.65;100301.00;295266;33;3917;-76
2022/10/16 00:20:01;;;;;;;579.97;231.23;;;;;;;13.37;72.63;100301.00;290824;33;4452;-76
2022/10/16 00:20:11;;;;;;;579.15;231.75;;;;;;;13.37;72.54;100295.75;291958;33;1051;-76
2022/10/16 00:20:22;;;;;;;580.87;232.37;;;;;;;13.36;72.62;100307.19;293281;33;6824;-76
2022/10/16 00:20:36;;;;;;;576.63;229.40;;;;;;;13.37;72.59;100295.75;294147;33;6373;-78
2022/10/16 00:20:46;;;;;;;573.55;225.25;;;;;;;13.38;72.40;100297.47;294813;33;7364;-76
2022/10/16 00:21:18;;;;;;;571.65;225.68;;;;;;;13.36;72.62;100303.69;292496;33;1232;-76
2022/10/16 00:21:29;;;;;;;573.05;229.40;;;;;;;13.35;72.64;100308.09;290188;33;5303;-76
2022/10/16 00:21:39;;;;;;;572.42;224.13;;;;;;;13.34;72.67;100301.13;292076;33;2109;-76
2022/10/16 00:21:50;;;;;;;574.50;225.10;;;;;;;13.33;73.13;100299.41;288686;33;4484;-76
2022/10/16 00:22:00;;;;;;;573.28;225.88;;;;;;;13.33;72.61;100307.31;287026;34;4824;-77
2022/10/16 00:22:11;;;;;;;577.40;232.43;;;;;;;13.31;72.88;100296.84;288416;34;1439;-77
2022/10/16 00:22:21;;;;;;;576.90;232.33;;;;;;;13.33;72.99;100309.94;286636;34;6453;-77
2022/10/16 00:22:32;;;;;;;578.85;232.80;;;;;;;13.33;72.86;100304.66;287593;34;8506;-77
2022/10/16 00:22:43;;;;;;;577.40;230.40;;;;;;;13.29;73.09;100301.31;287545;34;904;-77
2022/10/16 00:22:53;;;;;;;577.05;228.25;;;;;;;13.29;72.92;100300.47;279725;35;1864;-77
2022/10/16 00:23:04;;;;;;;575.73;228.70;;;;;;;13.26;73.22;100304.06;279588;34;9752;-77
2022/10/16 00:23:15;;;;;;;574.90;228.23;;;;;;;13.26;72.95;100304.06;276429;35;8146;-77
2022/10/16 00:23:25;;;;;;;575.80;229.97;;;;;;;13.26;73.23;100304.06;275795;35;939;-77
2022/10/16 00:23:36;;;;;;;576.67;227.77;;;;;;;13.26;72.92;100300.56;273135;35;11235;-77
2022/10/16 00:25:13;;;;;;;559.36;212.08;;;;;;;13.27;73.24;100304.91;2494173;27;20272;-76
2022/10/16 00:25:24;;;;;;;574.20;224.90;;;;;;;13.25;73.58;100312.88;351848;28;1412;-76
2022/10/16 00:25:34;;;;;;;575.38;228.40;;;;;;;13.23;73.51;100304.19;349020;28;1207;-77
2022/10/16 00:25:44;;;;;;;574.90;231.40;;;;;;;13.23;73.39;100308.59;349007;28;1271;-77
2022/10/16 00:25:56;;;;;;;573.30;232.75;;;;;;;13.24;73.55;100307.66;351699;28;1495;-76
2022/10/16 00:26:12;;;;;;;576.22;231.93;;;;;;;13.22;73.44;100301.63;350496;28;916;-77
2022/10/16 00:26:22;;;;;;;574.20;225.65;;;;;;;13.23;73.25;100303.34;347706;28;890;-77
2022/10/16 00:26:33;;;;;;;570.47;221.82;;;;;;;13.19;73.25;100302.59;347586;28;1196;-77
2022/10/16 00:26:44;;;;;;;569.13;219.70;;;;;;;13.21;73.67;100305.16;347670;28;1449;-77
2022/10/16 00:26:55;;;;;;;570.57;222.20;;;;;;;13.18;73.28;100300.03;347493;28;1204;-77
2022/10/16 00:27:05;;;;;;;571.95;223.95;;;;;;;13.18;73.59;100303.50;349142;28;903;-77
2022/10/16 00:27:16;;;;;;;574.03;228.93;;;;;;;13.17;73.38;100303.56;345598;28;1186;-78
2022/10/16 00:27:26;;;;;;;573.92;228.93;;;;;;;13.16;73.71;100305.34;346091;28;1292;-77
2022/10/16 00:27:37;;;;;;;571.70;226.85;;;;;;;13.17;73.19;100304.44;347171;28;1781;-77
2022/10/16 00:27:47;;;;;;;569.47;223.27;;;;;;;13.17;73.51;100299.19;349180;28;947;-77
2022/10/16 00:27:59;;;;;;;569.30;221.20;;;;;;;13.17;73.35;100299.19;349141;28;876;-77
2022/10/16 00:28:10;;;;;;;568.80;221.02;;;;;;;13.18;73.36;100302.66;347665;28;1118;-77
2022/10/16 00:28:20;;;;;;;569.50;221.67;;;;;;;13.18;73.28;100300.03;347506;28;1446;-77
2022/10/16 00:28:31;;;;;;;568.38;219.50;;;;;;;13.19;73.45;100299.13;349480;28;1324;-77
2022/10/16 00:28:41;;;;;;;567.67;216.40;;;;;;;13.20;73.29;100295.56;351610;28;1468;-77
2022/10/16 00:28:52;;;;;;;566.97;212.77;;;;;;;13.19;73.40;100296.50;348210;28;1816;-77
2022/10/16 00:29:03;;;;;;;567.87;213.97;;;;;;;13.19;73.23;100302.59;347313;28;1193;-77
2022/10/16 00:29:14;;;;;;;568.28;217.02;;;;;;;13.18;73.45;100297.41;348975;28;955;-77
2022/10/16 00:29:24;;;;;;;567.97;216.65;;;;;;;13.17;73.46;100298.31;348846;28;1195;-77
2022/10/16 00:29:35;;;;;;;568.37;216.83;;;;;;;13.17;73.24;100298.31;346377;28;2911;-77
2022/10/16 00:29:49;;;;;;;567.08;214.27;;;;;;;13.18;73.26;100294.78;346198;28;1354;-77
2022/10/16 00:29:59;;;;;;;565.65;212.15;;;;;;;13.18;73.22;100305.28;347533;28;1074;-77
2022/10/16 00:30:09;;;;;;;566.10;212.87;;;;;;;13.16;73.25;100296.59;348913;28;881;-77
2022/10/16 00:30:20;;;;;;;568.95;214.95;;;;;;;13.18;73.11;100294.78;347542;28;1227;-77
2022/10/16 00:30:30;;;;;;;571.53;221.87;;;;;;;13.19;73.26;100301.75;347137;28;1802;-77
2022/10/16 00:30:41;;;;;;;570.88;224.48;;;;;;;13.19;72.98;100296.50;348972;28;1377;-77
2022/10/16 00:30:51;;;;;;;570.40;224.90;;;;;;;13.19;73.17;100304.38;345487;28;1464;-77
2022/10/16 00:31:08;;;;;;;570.08;224.68;;;;;;;13.20;72.89;100292.94;347709;28;1311;-77
2022/10/16 00:31:20;;;;;;;569.20;224.15;;;;;;;13.20;72.90;100292.94;344134;28;1100;-77
2022/10/16 00:31:30;;;;;;;569.63;223.40;;;;;;;13.20;72.84;100293.78;345011;28;921;-76
2022/10/16 00:31:41;;;;;;;569.67;223.85;;;;;;;13.20;73.11;100295.56;343187;28;1116;-78
2022/10/16 00:31:51;;;;;;;571.10;225.57;;;;;;;13.20;73.01;100298.19;345239;28;1383;-78
2022/10/16 00:32:01;;;;;;;569.70;225.32;;;;;;;13.18;72.89;100294.78;342193;28;1442;-77
2022/10/16 00:32:12;;;;;;;569.67;225.17;;;;;;;13.16;72.92;100289.59;343482;28;1337;-77
2022/10/16 00:32:22;;;;;;;568.78;222.57;;;;;;;13.18;72.74;100294.78;343355;28;1778;-76
2022/10/16 00:32:33;;;;;;;568.70;219.53;;;;;;;13.17;73.12;100295.69;344445;28;1672;-77
2022/10/16 00:32:43;;;;;;;567.55;217.70;;;;;;;13.16;73.00;100292.22;342211;28;929;-77
2022/10/16 00:32:53;;;;;;;565.43;215.80;;;;;;;13.18;72.97;100294.78;339984;29;916;-77
2022/10/16 00:33:04;;;;;;;565.67;217.40;;;;;;;13.18;72.86;100294.78;337822;29;1341;-77
2022/10/16 00:33:14;;;;;;;568.73;218.30;;;;;;;13.16;72.70;100291.34;336048;29;1368;-77
2022/10/16 00:33:24;;;;;;;571.43;219.10;;;;;;;13.18;72.82;100294.78;336169;29;1495;-77
2022/10/16 00:33:35;;;;;;;572.73;221.00;;;;;;;13.17;73.15;100295.69;335239;29;1544;-77
2022/10/16 00:33:46;;;;;;;572.25;220.65;;;;;;;13.15;73.06;100295.72;336977;29;1237;-77
2022/10/16 00:33:56;;;;;;;572.63;220.60;;;;;;;13.16;72.98;100293.97;337374;29;1540;-77
2022/10/16 00:34:06;;;;;;;571.35;218.02;;;;;;;13.16;73.31;100296.59;335804;29;1927;-77
2022/10/16 00:34:17;;;;;;;566.73;216.40;;;;;;;13.17;73.18;100295.69;337070;29;898;-77
2022/10/16 00:34:27;;;;;;;567.65;215.70;;;;;;;13.17;73.25;100298.31;331974;29;1182;-77
2022/10/16 00:34:38;;;;;;;567.33;214.50;;;;;;;13.16;72.92;100292.22;331033;29;1206;-77
2022/10/16 00:34:48;;;;;;;567.20;215.18;;;;;;;13.15;73.17;100294.88;328723;29;4679;-77
2022/10/16 00:34:59;;;;;;;567.43;215.03;;;;;;;13.14;72.99;100298.41;326590;30;3473;-77
2022/10/16 00:35:09;;;;;;;567.75;214.00;;;;;;;13.14;73.35;100298.41;330849;29;6415;-77
2022/10/16 00:35:20;;;;;;;569.33;213.53;;;;;;;13.15;73.26;100297.50;330712;29;1862;-77
2022/10/16 00:35:30;;;;;;;568.22;212.65;;;;;;;13.13;73.30;100297.56;330265;29;3531;-77
2022/10/16 00:35:41;;;;;;;568.20;214.60;;;;;;;13.14;73.29;100295.78;331325;29;1914;-77
2022/10/16 00:35:51;;;;;;;567.33;214.07;;;;;;;13.14;73.04;100293.16;330822;29;2068;-77
2022/10/16 00:36:02;;;;;;;565.53;213.93;;;;;;;13.15;73.39;100294.88;331098;29;935;-77
2022/10/16 00:36:15;;;;;;;567.63;216.13;;;;;;;13.14;73.38;100294.00;328239;30;914;-77
2022/10/16 00:36:25;;;;;;;570.53;220.63;;;;;;;13.16;73.35;100299.25;326546;30;1786;-77
2022/10/16 00:36:36;;;;;;;570.83;216.45;;;;;;;13.15;73.08;100300.97;326366;30;971;-77
2022/10/16 00:36:46;;;;;;;569.50;212.87;;;;;;;13.17;73.01;100303.56;330736;29;1229;-77
2022/10/16 00:36:56;;;;;;;567.85;208.93;;;;;;;13.16;73.23;100300.09;323847;30;6014;-77
2022/10/16 00:37:07;;;;;;;566.37;212.80;;;;;;;13.17;73.25;100298.31;323004;30;1862;-77
2022/10/16 00:37:17;;;;;;;569.35;217.52;;;;;;;13.16;73.13;100294.84;320705;30;2163;-77
2022/10/16 00:37:28;;;;;;;571.37;221.03;;;;;;;13.15;73.19;100297.50;320994;30;1187;-77
2022/10/16 00:37:38;;;;;;;571.25;221.75;;;;;;;13.15;73.34;100297.50;319796;30;2354;-77
2022/10/16 00:37:48;;;;;;;568.70;218.90;;;;;;;13.16;73.39;100301.88;321937;30;2639;-77
2022/10/16 00:37:59;;;;;;;566.25;216.05;;;;;;;13.14;73.35;100306.28;323184;30;1223;-77
2022/10/16 00:38:09;;;;;;;566.30;214.97;;;;;;;13.14;73.08;100298.41;322704;30;2384;-77
2022/10/16 00:38:20;;;;;;;565.75;212.40;;;;;;;13.14;73.35;100298.41;319386;30;2613;-77
2022/10/16 00:38:30;;;;;;;568.90;213.17;;;;;;;13.12;73.15;100303.72;318960;31;1251;-77
2022/10/16 00:38:41;;;;;;;569.33;212.77;;;;;;;13.11;73.27;100309.03;318347;30;1935;-77
2022/10/16 00:38:54;;;;;;;568.60;212.10;;;;;;;13.10;73.33;100307.34;318998;30;1227;-77
2022/10/16 00:39:04;;;;;;;566.45;210.75;;;;;;;13.09;73.21;100305.63;318315;30;2126;-77
2022/10/16 00:39:15;;;;;;;568.08;214.32;;;;;;;13.07;73.31;100304.81;314863;31;1889;-76
2022/10/16 00:39:25;;;;;;;570.37;217.43;;;;;;;13.05;73.40;100301.41;312793;31;2809;-76
2022/10/16 00:39:36;;;;;;;570.90;218.75;;;;;;;13.05;73.40;100309.28;314321;31;2842;-76
2022/10/16 00:39:46;;;;;;;568.30;215.93;;;;;;;13.04;73.60;100307.56;314053;31;1399;-76
2022/10/16 00:39:57;;;;;;;570.17;217.67;;;;;;;13.03;73.85;100300.59;309484;31;3216;-76
2022/10/16 00:40:07;;;;;;;572.33;220.32;;;;;;;13.02;73.62;100305.00;308963;31;3355;-76
2022/10/16 00:40:18;;;;;;;572.03;221.18;;;;;;;13.00;73.64;100302.44;308207;31;3433;-76
2022/10/16 00:40:29;;;;;;;568.37;216.53;;;;;;;13.00;73.80;100306.84;309853;31;906;-76
2022/10/16 00:40:39;;;;;;;565.28;211.88;;;;;;;12.97;74.03;100307.84;310031;31;3281;-76
2022/10/16 00:40:50;;;;;;;566.33;212.25;;;;;;;12.97;73.67;100302.59;308813;31;2516;-76
2022/10/16 00:41:00;;;;;;;568.33;214.77;;;;;;;12.95;73.87;100299.16;310746;31;2723;-76
2022/10/16 00:41:17;;;;;;;569.30;218.32;;;;;;;12.95;73.78;100307.06;307463;31;1863;-76
2022/10/16 00:41:28;;;;;;;570.53;219.25;;;;;;;12.95;73.90;100303.56;302677;32;1326;-76
2022/10/16 00:41:38;;;;;;;570.57;218.53;;;;;;;12.95;74.01;100299.16;301420;32;4112;-76
2022/10/16 00:41:49;;;;;;;570.67;220.73;;;;;;;12.95;73.84;100307.06;297302;33;3985;-76
2022/10/16 00:41:59;;;;;;;570.30;223.13;;;;;;;12.94;73.62;100307.97;296540;33;1905;-76
2022/10/16 00:42:14;;;;;;;568.72;224.15;;;;;;;12.93;73.71;100303.63;292631;33;5201;-76
2022/10/16 00:42:25;;;;;;;569.42;220.90;;;;;;;12.90;73.87;100305.53;293588;33;4954;-76
2022/10/16 00:42:36;;;;;;;571.50;219.85;;;;;;;12.87;74.01;100308.25;292715;33;4695;-76
2022/10/16 00:42:46;;;;;;;573.05;221.90;;;;;;;12.90;73.75;100306.38;290366;34;867;-78
2022/10/16 00:42:57;;;;;;;571.87;219.37;;;;;;;12.89;73.92;100309.06;288086;33;4521;-77
2022/10/16 00:43:40;;;;;;;569.95;217.00;;;;;;;12.89;73.65;100304.66;288442;34;3575;-77
2022/10/16 00:43:55;;;;;;;567.50;213.70;;;;;;;12.87;73.71;100303.88;282508;34;6189;-77
2022/10/16 00:44:43;;;;;;;569.15;215.07;;;;;;;12.88;73.77;100309.97;278783;35;7035;-77
2022/10/16 00:44:58;;;;;;;563.80;211.77;;;;;;;12.90;73.67;100313.41;272288;35;6694;-77
2022/10/16 00:45:09;;;;;;;567.30;219.38;;;;;;;12.88;73.68;100312.59;274759;35;7194;-78
2022/10/16 00:45:19;;;;;;;568.95;222.30;;;;;;;12.87;73.59;100311.75;273555;35;5377;-78
2022/10/16 00:45:30;;;;;;;572.37;225.07;;;;;;;12.85;73.69;100303.06;273175;36;933;-77
2022/10/16 00:45:40;;;;;;;573.38;222.93;;;;;;;12.84;73.88;100314.50;271530;36;5338;-77
2022/10/16 00:45:51;;;;;;;574.33;224.43;;;;;;;12.84;73.54;100314.50;269553;36;6188;-77
2022/10/16 00:46:02;;;;;;;578.87;223.77;;;;;;;12.84;73.76;100311.88;267421;36;1257;-76
2022/10/16 00:46:28;;;;;;;577.97;223.80;;;;;;;12.87;73.53;100314.38;270204;36;2554;-77
2022/10/16 00:46:40;;;;;;;568.70;221.07;;;;;;;12.88;73.67;100312.59;266861;36;9678;-77
2022/10/16 00:48:35;;;;;;;541.08;181.09;;;;;;;12.86;74.11;100314.44;2499700;27;20268;-77
2022/10/16 00:48:51;;;;;;;552.93;187.30;;;;;;;12.85;73.95;100316.19;351642;28;1354;-76
2022/10/16 00:49:06;;;;;;;554.80;187.73;;;;;;;12.85;73.70;100318.84;349158;28;1065;-77
2022/10/16 00:49:16;;;;;;;556.35;188.65;;;;;;;12.85;73.78;100313.56;349008;28;1271;-77
2022/10/16 00:49:27;;;;;;;556.97;190.55;;;;;;;12.87;73.84;100319.63;349151;28;1222;-77
2022/10/16 00:49:37;;;;;;;559.58;193.52;;;;;;;12.88;73.79;100312.59;349097;28;1101;-76
2022/10/16 00:49:48;;;;;;;558.03;192.67;;;;;;;12.87;74.16;100317.00;350357;28;1465;-76
2022/10/16 00:50:10;;;;;;;561.83;192.02;;;;;;;12.86;74.15;100317.91;349849;28;1492;-76
2022/10/16 00:50:28;;;;;;;559.45;188.50;;;;;;;12.87;74.02;100319.63;351755;28;1369;-76
2022/10/16 00:50:41;;;;;;;556.63;193.45;;;;;;;12.87;74.16;100318.78;349033;28;1404;-76
2022/10/16 00:50:51;;;;;;;556.92;192.90;;;;;;;12.86;74.11;100315.28;348958;28;1287;-76
2022/10/16 00:51:02;;;;;;;556.25;190.27;;;;;;;12.87;74.11;100317.00;350442;28;875;-77
2022/10/16 00:51:12;;;;;;;556.13;189.43;;;;;;;12.89;74.09;100319.56;346648;28;1272;-77
2022/10/16 00:51:25;;;;;;;556.88;190.02;;;;;;;12.88;74.03;100317.84;348945;28;1434;-76
2022/10/16 00:51:38;;;;;;;555.78;190.57;;;;;;;12.89;74.18;100315.16;345562;28;1534;-78
2022/10/16 00:51:52;;;;;;;555.95;190.60;;;;;;;12.87;74.22;100317.00;347145;28;1279;-78
2022/10/16 00:52:03;;;;;;;556.47;191.10;;;;;;;12.85;74.26;100315.34;348925;28;1474;-78
2022/10/16 00:52:13;;;;;;;556.88;191.88;;;;;;;12.82;74.23;100318.09;347600;28;880;-78
2022/10/16 00:52:23;;;;;;;557.17;191.20;;;;;;;12.82;74.28;100318.09;344806;28;1283;-78
2022/10/16 00:52:34;;;;;;;556.03;190.50;;;;;;;12.81;74.45;100326.88;343650;28;840;-78
2022/10/16 00:52:46;;;;;;;556.80;189.13;;;;;;;12.79;74.58;100319.06;345540;28;1211;-78
2022/10/16 00:52:57;;;;;;;555.58;186.48;;;;;;;12.80;74.46;100314.66;345673;28;1284;-78
2022/10/16 00:53:07;;;;;;;554.23;184.77;;;;;;;12.79;74.30;100313.81;345750;28;2749;-78
2022/10/16 00:53:18;;;;;;;554.38;185.57;;;;;;;12.78;74.76;100319.97;345295;28;1494;-78
2022/10/16 00:53:28;;;;;;;557.67;188.17;;;;;;;12.80;74.71;100315.53;342260;28;1185;-78
2022/10/16 00:53:38;;;;;;;557.88;186.30;;;;;;;12.79;74.52;100319.06;343713;28;2096;-78
2022/10/16 00:53:49;;;;;;;558.87;187.13;;;;;;;12.80;74.37;100314.66;345044;28;1034;-78
2022/10/16 00:54:00;;;;;;;557.30;186.70;;;;;;;12.80;74.41;100319.91;346082;28;1336;-77
2022/10/16 00:54:19;;;;;;;559.13;190.98;;;;;;;12.77;74.64;100320.88;345791;28;1482;-77
2022/10/16 00:54:30;;;;;;;561.97;195.15;;;;;;;12.77;74.55;100315.63;342297;28;1449;-77
2022/10/16 00:54:40;;;;;;;561.67;195.02;;;;;;;12.77;74.82;100320.88;346540;28;1375;-77
2022/10/16 00:54:51;;;;;;;560.63;195.40;;;;;;;12.78;74.63;100317.34;344874;28;1949;-77
2022/10/16 00:55:02;;;;;;;559.40;192.88;;;;;;;12.78;74.92;100317.34;346069;28;1315;-77
2022/10/16 00:55:13;;;;;;;562.90;191.46;;;;;;;12.78;74.66;100319.97;348536;28;2579;-77
2022/10/16 00:55:23;;;;;;;562.93;192.40;;;;;;;12.78;74.78;100322.59;349124;28;789;-77
2022/10/16 00:55:34;;;;;;;561.13;192.85;;;;;;;12.78;74.87;100317.34;347714;28;1351;-77
2022/10/16 00:55:45;;;;;;;559.88;193.68;;;;;;;12.78;74.75;100317.34;348501;28;889;-77
2022/10/16 00:55:56;;;;;;;559.60;191.10;;;;;;;12.80;74.69;100320.78;347461;28;1330;-77
2022/10/16 00:56:06;;;;;;;560.87;190.27;;;;;;;12.80;74.71;100322.53;348926;28;1417;-77
2022/10/16 00:56:17;;;;;;;560.83;190.32;;;;;;;12.80;74.89;100326.03;343492;28;1231;-77